createdAt,value
2019-03-03T00:00:46.051Z,24.65
2019-03-03T00:03:06.598Z,22.77
2019-03-03T00:05:27.157Z,23.25
2019-03-03T00:07:47.783Z,22.67
2019-03-03T00:10:10.415Z,23.83
2019-03-03T00:12:30.643Z,23.98
2019-03-03T00:14:51.261Z,23.62
2019-03-03T00:17:12.754Z,22.87
2019-03-03T00:19:33.307Z,23.00
2019-03-03T00:21:53.907Z,24.67
2019-03-03T00:24:15.951Z,25.00
2019-03-03T00:26:36.431Z,23.38
2019-03-03T00:28:56.903Z,23.32
2019-03-03T00:31:19.187Z,24.05
2019-03-03T00:33:39.714Z,16.73
2019-03-03T00:36:00.194Z,22.00
2019-03-03T00:38:22.383Z,23.32
2019-03-03T00:40:50.355Z,23.45
2019-03-03T00:43:28.561Z,22.87
2019-03-03T00:45:59.132Z,22.20
2019-03-03T00:48:21.242Z,23.57
2019-03-03T00:50:46.187Z,23.07
2019-03-03T00:53:08.398Z,22.32
2019-03-03T00:55:36.118Z,17.20
2019-03-03T00:57:58.298Z,23.27
2019-03-03T01:00:22.994Z,24.02
2019-03-03T01:02:45.267Z,22.15
2019-03-03T01:05:10.158Z,16.93
2019-03-03T01:07:32.598Z,21.37
2019-03-03T01:09:54.786Z,16.17
2019-03-03T01:12:33.124Z,21.42
2019-03-03T01:14:55.446Z,21.85
2019-03-03T01:17:32.038Z,22.87
2019-03-03T01:19:57.109Z,22.35
2019-03-03T01:22:25.006Z,21.65
2019-03-03T01:24:47.139Z,23.12
2019-03-03T01:27:07.651Z,16.95
2019-03-03T01:29:28.136Z,22.85
2019-03-03T01:31:48.866Z,21.68
2019-03-03T01:34:09.704Z,21.90
2019-03-03T01:36:30.213Z,22.93
2019-03-03T01:38:50.771Z,23.20
2019-03-03T01:41:11.412Z,23.00
2019-03-03T01:43:31.869Z,21.45
2019-03-03T01:45:52.516Z,22.45
2019-03-03T01:48:13.132Z,23.00
2019-03-03T01:50:33.588Z,21.87
2019-03-03T01:52:54.183Z,22.52
2019-03-03T01:55:14.808Z,21.55
2019-03-03T01:57:35.310Z,23.12
2019-03-03T01:59:55.827Z,23.12
2019-03-03T02:02:16.360Z,21.37
2019-03-03T02:04:37.923Z,23.15
2019-03-03T02:06:58.510Z,22.62
2019-03-03T02:09:19.129Z,22.32
2019-03-03T02:11:39.916Z,22.37
2019-03-03T02:14:00.476Z,22.73
2019-03-03T02:16:22.299Z,22.85
2019-03-03T02:18:42.845Z,21.57
2019-03-03T02:21:03.360Z,21.80
2019-03-03T02:23:23.904Z,24.00
2019-03-03T02:25:44.544Z,22.65
2019-03-03T02:28:05.202Z,22.25
2019-03-03T02:30:25.708Z,23.40
2019-03-03T02:32:46.355Z,22.73
2019-03-03T02:35:07.347Z,22.45
2019-03-03T02:37:27.880Z,22.48
2019-03-03T02:39:48.499Z,22.90
2019-03-03T02:42:09.115Z,23.20
2019-03-03T02:44:29.594Z,22.95
2019-03-03T02:46:50.106Z,23.87
2019-03-03T02:49:10.693Z,25.20
2019-03-03T02:51:31.257Z,24.77
2019-03-03T02:53:55.018Z,25.52
2019-03-03T02:56:15.630Z,24.87
2019-03-03T02:58:36.154Z,24.27
2019-03-03T03:00:58.275Z,24.05
2019-03-03T03:03:20.763Z,22.15
2019-03-03T03:05:42.897Z,23.90
2019-03-03T03:08:04.479Z,18.17
2019-03-03T03:10:44.915Z,24.60
2019-03-03T03:13:09.830Z,22.73
2019-03-03T03:15:45.172Z,22.22
2019-03-03T03:18:22.753Z,22.65
2019-03-03T03:21:03.339Z,22.58
2019-03-03T03:23:25.588Z,21.60
2019-03-03T03:25:53.000Z,15.70
2019-03-03T03:28:17.943Z,23.52
2019-03-03T03:30:43.016Z,23.05
2019-03-03T03:33:17.024Z,23.05
2019-03-03T03:35:41.876Z,25.68
2019-03-03T03:38:04.039Z,26.12
2019-03-03T03:40:43.673Z,18.33
2019-03-03T03:43:22.283Z,26.17
2019-03-03T03:46:00.538Z,24.12
2019-03-03T03:48:25.615Z,24.23
2019-03-03T03:50:59.959Z,25.20
2019-03-03T03:53:22.155Z,24.77
2019-03-03T03:55:59.929Z,18.87
2019-03-03T03:58:31.055Z,24.30
2019-03-03T04:01:09.810Z,25.95
2019-03-03T04:03:40.892Z,26.05
2019-03-03T04:06:03.585Z,26.30
2019-03-03T04:08:25.702Z,24.15
2019-03-03T04:11:03.871Z,25.95
2019-03-03T04:13:37.990Z,24.65
2019-03-03T04:16:12.004Z,25.40
2019-03-03T04:18:55.439Z,24.87
2019-03-03T04:21:34.149Z,24.18
2019-03-03T04:23:56.389Z,24.07
2019-03-03T04:26:20.854Z,17.70
2019-03-03T04:28:43.055Z,23.55
2019-03-03T04:31:07.924Z,17.57
2019-03-03T04:33:45.448Z,23.65
2019-03-03T04:36:19.695Z,24.15
2019-03-03T04:38:53.702Z,23.77
2019-03-03T04:41:15.923Z,23.75
2019-03-03T04:43:37.587Z,18.43
2019-03-03T04:46:11.916Z,24.52
2019-03-03T04:48:34.099Z,24.05
2019-03-03T04:50:58.897Z,24.20
2019-03-03T04:53:37.344Z,24.02
2019-03-03T04:55:59.469Z,23.70
2019-03-03T04:58:21.096Z,17.67
2019-03-03T05:00:43.279Z,18.98
2019-03-03T05:03:21.767Z,24.00
2019-03-03T05:06:00.502Z,26.17
2019-03-03T05:08:26.005Z,26.95
2019-03-03T05:11:00.452Z,25.23
2019-03-03T05:13:22.618Z,24.47
2019-03-03T05:15:44.168Z,25.53
2019-03-03T05:18:06.357Z,24.55
2019-03-03T05:20:28.442Z,25.02
2019-03-03T05:22:49.920Z,23.18
2019-03-03T05:25:12.343Z,25.25
2019-03-03T05:27:34.069Z,16.75
2019-03-03T05:29:54.550Z,26.62
2019-03-03T05:32:15.123Z,24.82
2019-03-03T05:34:35.610Z,25.02
2019-03-03T05:36:56.353Z,24.70
2019-03-03T05:39:17.034Z,25.10
2019-03-03T05:41:37.497Z,24.52
2019-03-03T05:43:58.047Z,24.75
2019-03-03T05:46:18.560Z,25.57
2019-03-03T05:48:39.058Z,26.52
2019-03-03T05:50:59.562Z,25.05
2019-03-03T05:53:20.138Z,25.32
2019-03-03T05:55:40.747Z,25.57
2019-03-03T05:58:01.280Z,24.95
2019-03-03T06:00:21.841Z,25.72
2019-03-03T06:02:42.386Z,25.72
2019-03-03T06:05:02.840Z,26.15
2019-03-03T06:07:23.344Z,25.90
2019-03-03T06:09:43.919Z,26.10
2019-03-03T06:12:04.605Z,26.00
2019-03-03T06:14:25.227Z,26.25
2019-03-03T06:16:45.670Z,26.05
2019-03-03T06:19:06.158Z,26.15
2019-03-03T06:21:26.723Z,24.57
2019-03-03T06:23:47.165Z,25.65
2019-03-03T06:26:07.786Z,27.22
2019-03-03T06:28:29.327Z,25.75
2019-03-03T06:30:51.240Z,24.80
2019-03-03T06:33:12.665Z,25.48
2019-03-03T06:35:33.203Z,25.72
2019-03-03T06:37:53.763Z,25.05
2019-03-03T06:40:15.196Z,24.77
2019-03-03T06:42:35.880Z,24.77
2019-03-03T06:44:56.394Z,24.85
2019-03-03T06:47:16.949Z,24.40
2019-03-03T06:49:37.419Z,25.12
2019-03-03T06:52:03.133Z,24.92
2019-03-03T06:54:23.697Z,25.00
2019-03-03T06:56:45.145Z,25.10
2019-03-03T06:59:05.743Z,25.15
2019-03-03T07:01:26.253Z,24.27
2019-03-03T07:03:47.908Z,23.70
2019-03-03T07:06:08.437Z,22.98
2019-03-03T07:08:36.789Z,23.50
2019-03-03T07:10:58.463Z,22.98
2019-03-03T07:13:19.080Z,23.85
2019-03-03T07:15:39.657Z,23.73
2019-03-03T07:18:00.109Z,23.77
2019-03-03T07:20:20.639Z,24.77
2019-03-03T07:22:41.890Z,24.30
2019-03-03T07:25:02.471Z,23.42
2019-03-03T07:27:23.160Z,23.07
2019-03-03T07:29:43.704Z,23.10
2019-03-03T07:32:04.315Z,22.45
2019-03-03T07:34:24.319Z,22.70
2019-03-03T07:36:44.917Z,22.73
2019-03-03T07:39:07.951Z,21.95
2019-03-03T07:41:28.255Z,22.73
2019-03-03T07:43:48.835Z,22.42
2019-03-03T07:46:08.822Z,22.45
2019-03-03T07:48:28.721Z,22.62
2019-03-03T07:50:48.745Z,22.35
2019-03-03T07:53:08.854Z,22.32
2019-03-03T07:55:29.510Z,21.68
2019-03-03T07:57:50.244Z,22.42
2019-03-03T08:00:17.304Z,20.90
2019-03-03T08:02:37.904Z,20.37
2019-03-03T08:04:58.487Z,20.48
2019-03-03T08:07:19.103Z,19.95
2019-03-03T08:09:39.101Z,20.17
2019-03-03T08:11:59.855Z,20.40
2019-03-03T08:14:19.885Z,19.07
2019-03-03T08:16:39.886Z,21.20
2019-03-03T08:19:00.494Z,19.73
2019-03-03T08:21:20.482Z,20.80
2019-03-03T08:23:40.661Z,19.90
2019-03-03T08:26:00.798Z,20.05
2019-03-03T08:28:20.963Z,19.40
2019-03-03T08:30:40.980Z,18.85
2019-03-03T08:33:01.531Z,17.85
2019-03-03T08:35:25.059Z,20.27
2019-03-03T08:37:45.876Z,19.62
2019-03-03T08:40:08.486Z,19.12
2019-03-03T08:42:33.193Z,20.85
2019-03-03T08:44:57.413Z,19.82
2019-03-03T08:47:34.368Z,21.10
2019-03-03T08:49:57.074Z,19.10
2019-03-03T08:52:18.994Z,18.85
2019-03-03T08:54:40.647Z,18.00
2019-03-03T08:57:18.443Z,18.17
2019-03-03T08:59:56.857Z,18.05
2019-03-03T09:02:23.719Z,17.75
2019-03-03T09:04:50.954Z,17.23
2019-03-03T09:07:14.088Z,17.98
2019-03-03T09:09:35.657Z,16.75
2019-03-03T09:11:57.266Z,17.92
2019-03-03T09:14:18.893Z,17.05
2019-03-03T09:16:43.623Z,17.45
2019-03-03T09:19:05.476Z,18.23
2019-03-03T09:21:27.458Z,18.97
2019-03-03T09:23:55.359Z,18.30
2019-03-03T09:26:17.276Z,18.13
2019-03-03T09:28:45.142Z,19.07
2019-03-03T09:31:07.174Z,18.87
2019-03-03T09:33:29.374Z,19.37
2019-03-03T09:35:51.077Z,19.10
2019-03-03T09:38:12.669Z,17.27
2019-03-03T09:40:36.880Z,16.95
2019-03-03T09:42:58.480Z,15.53
2019-03-03T09:45:37.821Z,15.23
2019-03-03T09:48:00.090Z,14.50
2019-03-03T09:50:21.906Z,11.53
2019-03-03T09:52:49.610Z,12.70
2019-03-03T09:55:27.493Z,13.10
2019-03-03T09:58:01.660Z,11.77
2019-03-03T10:00:35.413Z,11.07
2019-03-03T10:03:09.388Z,11.60
2019-03-03T10:05:47.919Z,10.27
2019-03-03T10:08:25.932Z,10.60
2019-03-03T10:10:50.516Z,9.83
2019-03-03T10:13:12.379Z,9.90
2019-03-03T10:15:43.565Z,7.70
2019-03-03T10:18:14.501Z,7.30
2019-03-03T10:20:39.492Z,6.87
2019-03-03T10:23:19.816Z,5.87
2019-03-03T10:25:58.699Z,6.30
2019-03-03T10:28:28.278Z,5.97
2019-03-03T10:30:50.219Z,5.40
2019-03-03T10:33:12.702Z,4.87
2019-03-03T10:35:43.125Z,5.37
2019-03-03T10:38:07.810Z,5.27
2019-03-03T10:40:35.572Z,5.10
2019-03-03T10:43:00.591Z,5.50
2019-03-03T10:45:27.964Z,5.93
2019-03-03T10:47:55.532Z,6.30
2019-03-03T10:50:17.226Z,6.20
2019-03-03T10:52:54.172Z,5.80
2019-03-03T10:55:16.121Z,5.03
2019-03-03T10:57:54.068Z,4.03
2019-03-03T11:00:26.739Z,4.10
2019-03-03T11:03:05.178Z,4.22
2019-03-03T11:05:26.902Z,4.30
2019-03-03T11:07:51.238Z,4.72
2019-03-03T11:10:16.064Z,4.40
2019-03-03T11:12:37.763Z,5.08
2019-03-03T11:14:59.824Z,3.43
2019-03-03T11:17:21.677Z,3.17
2019-03-03T11:19:46.070Z,4.10
2019-03-03T11:22:17.630Z,3.93
2019-03-03T11:24:54.831Z,3.70
2019-03-03T11:27:28.922Z,3.30
2019-03-03T11:30:22.366Z,3.30
2019-03-03T11:32:44.457Z,2.67
2019-03-03T11:35:10.450Z,2.90
2019-03-03T11:37:37.735Z,2.95
2019-03-03T11:40:08.919Z,2.40
2019-03-03T11:42:37.191Z,3.00
2019-03-03T11:45:00.292Z,3.33
2019-03-03T11:47:26.158Z,2.70
2019-03-03T11:50:03.319Z,3.52
2019-03-03T11:52:28.297Z,2.87
2019-03-03T11:54:50.623Z,2.72
2019-03-03T11:57:21.871Z,3.22
2019-03-03T11:59:43.897Z,3.00
2019-03-03T12:02:11.684Z,3.63
2019-03-03T12:04:51.137Z,3.47
2019-03-03T12:07:29.037Z,4.17
2019-03-03T12:10:06.756Z,4.37
2019-03-03T12:12:31.136Z,4.90
2019-03-03T12:14:55.804Z,4.50
2019-03-03T12:17:17.762Z,4.13
2019-03-03T12:19:43.759Z,3.00
2019-03-03T12:22:24.558Z,3.37
2019-03-03T12:24:46.414Z,3.67
2019-03-03T12:27:08.428Z,3.70
2019-03-03T12:29:45.108Z,4.00
2019-03-03T12:32:09.568Z,3.90
2019-03-03T12:34:34.084Z,3.53
2019-03-03T12:37:11.099Z,4.00
2019-03-03T12:39:50.660Z,3.37
2019-03-03T12:42:15.544Z,4.03
2019-03-03T12:44:40.421Z,3.67
2019-03-03T12:47:02.274Z,4.07
2019-03-03T12:49:33.272Z,3.80
2019-03-03T12:52:00.593Z,3.67
2019-03-03T12:54:25.277Z,3.13
2019-03-03T12:56:47.275Z,3.10
2019-03-03T12:59:11.900Z,2.93
2019-03-03T13:01:36.437Z,2.43
2019-03-03T13:04:01.227Z,2.90
2019-03-03T13:06:24.535Z,2.50
2019-03-03T13:08:59.152Z,3.03
2019-03-03T13:11:16.250Z,2.80
2019-03-03T13:13:38.106Z,2.80
2019-03-03T13:16:06.023Z,2.67
2019-03-03T13:18:35.258Z,3.00
2019-03-03T13:21:13.270Z,2.70
2019-03-03T13:23:41.904Z,3.23
2019-03-03T13:26:12.753Z,3.90
2019-03-03T13:28:51.658Z,3.50
2019-03-03T13:31:18.968Z,3.40
2019-03-03T13:33:46.931Z,3.03
2019-03-03T13:36:11.925Z,3.10
2019-03-03T13:38:36.807Z,2.90
2019-03-03T13:40:58.813Z,2.83
2019-03-03T13:43:19.295Z,2.77
2019-03-03T13:45:39.353Z,2.90
2019-03-03T13:47:59.534Z,2.87
2019-03-03T13:50:20.647Z,3.20
2019-03-03T13:52:40.913Z,2.67
2019-03-03T13:55:01.294Z,2.50
2019-03-03T13:57:21.620Z,2.23
2019-03-03T13:59:44.096Z,2.37
2019-03-03T14:02:04.400Z,1.72
2019-03-03T14:04:25.424Z,2.08
2019-03-03T14:06:45.430Z,1.92
2019-03-03T14:09:07.259Z,1.80
2019-03-03T14:11:31.213Z,1.80
2019-03-03T14:13:51.208Z,1.82
2019-03-03T14:16:11.296Z,1.60
2019-03-03T14:18:31.544Z,1.80
2019-03-03T14:20:51.897Z,1.50
2019-03-03T14:23:13.614Z,1.80
2019-03-03T14:25:36.896Z,1.77
2019-03-03T14:27:57.254Z,1.63
2019-03-03T14:30:22.303Z,1.47
2019-03-03T14:32:42.353Z,1.67
2019-03-03T14:35:02.408Z,1.57
2019-03-03T14:37:23.448Z,1.77
2019-03-03T14:39:43.388Z,1.55
2019-03-03T14:42:03.652Z,1.40
2019-03-03T14:44:23.607Z,1.42
2019-03-03T14:46:43.643Z,1.60
2019-03-03T14:49:05.365Z,1.70
2019-03-03T14:51:25.694Z,1.60
2019-03-03T14:53:45.937Z,1.40
2019-03-03T14:56:06.144Z,1.60
2019-03-03T14:58:27.989Z,1.30
2019-03-03T15:00:48.298Z,1.63
2019-03-03T15:03:09.089Z,1.73
2019-03-03T15:05:30.102Z,1.57
2019-03-03T15:07:50.421Z,1.70
2019-03-03T15:10:13.527Z,1.70
2019-03-03T15:14:52.582Z,1.42
2019-03-03T15:17:12.541Z,1.70
2019-03-03T15:19:32.544Z,2.02
2019-03-03T15:21:52.519Z,1.40
2019-03-03T15:24:12.719Z,1.57
2019-03-03T15:26:32.807Z,1.67
2019-03-03T15:28:52.861Z,1.40
2019-03-03T15:31:13.088Z,1.30
2019-03-03T15:33:33.096Z,1.27
2019-03-03T15:35:53.126Z,1.72
2019-03-03T15:38:13.114Z,1.50
2019-03-03T15:40:33.383Z,1.40
2019-03-03T15:42:53.776Z,1.50
2019-03-03T15:45:22.132Z,1.40
2019-03-03T15:47:42.493Z,1.70
2019-03-03T15:50:02.888Z,1.40
2019-03-03T15:52:23.373Z,1.30
2019-03-03T15:54:43.565Z,1.57
2019-03-03T15:57:03.870Z,1.30
2019-03-03T15:59:24.266Z,1.40
2019-03-03T16:01:44.629Z,1.60
2019-03-03T16:04:05.221Z,1.33
2019-03-03T16:06:25.594Z,1.60
2019-03-03T16:08:46.857Z,1.70
2019-03-03T16:11:07.543Z,1.67
2019-03-03T16:13:27.803Z,2.07
2019-03-03T16:15:49.550Z,1.73
2019-03-03T16:18:09.871Z,2.20
2019-03-03T16:20:30.231Z,2.17
2019-03-03T16:22:50.485Z,1.67
2019-03-03T16:25:13.092Z,2.10
2019-03-03T16:27:33.295Z,2.67
2019-03-03T16:29:53.259Z,2.58
2019-03-03T16:32:13.520Z,2.50
2019-03-03T16:34:33.755Z,2.53
2019-03-03T16:36:54.003Z,2.20
2019-03-03T16:39:14.168Z,2.10
2019-03-03T16:41:34.733Z,2.27
2019-03-03T16:43:54.673Z,2.50
2019-03-03T16:46:15.837Z,2.72
2019-03-03T16:48:36.505Z,2.50
2019-03-03T16:50:56.889Z,2.53
2019-03-03T16:53:18.575Z,2.80
2019-03-03T16:55:39.174Z,3.17
2019-03-03T16:57:59.675Z,3.70
2019-03-03T17:00:22.940Z,2.83
2019-03-03T17:02:43.732Z,3.17
2019-03-03T17:05:06.570Z,2.73
2019-03-03T17:07:26.815Z,2.70
2019-03-03T17:09:47.599Z,2.10
2019-03-03T17:12:07.755Z,2.50
2019-03-03T17:14:28.460Z,3.00
2019-03-03T17:16:48.992Z,2.12
2019-03-03T17:19:09.693Z,2.50
2019-03-03T17:21:30.383Z,4.20
2019-03-03T17:23:51.039Z,5.28
2019-03-03T17:26:11.027Z,4.65
2019-03-03T17:28:31.038Z,4.85
2019-03-03T17:30:51.595Z,4.50
2019-03-03T17:33:12.191Z,4.25
2019-03-03T17:35:32.786Z,4.55
2019-03-03T17:37:59.298Z,4.55
2019-03-03T17:40:25.613Z,5.03
2019-03-03T17:42:46.631Z,5.28
2019-03-03T17:45:13.416Z,5.25
2019-03-03T17:47:33.992Z,5.70
2019-03-03T17:49:54.559Z,6.37
2019-03-03T17:52:15.171Z,6.42
2019-03-03T17:54:37.438Z,6.78
2019-03-03T17:56:57.585Z,6.17
2019-03-03T17:59:18.238Z,6.05
2019-03-03T18:01:38.813Z,5.37
2019-03-03T18:04:01.029Z,5.62
2019-03-03T18:06:22.354Z,6.12
2019-03-03T18:08:43.275Z,5.42
2019-03-03T18:11:03.977Z,6.05
2019-03-03T18:13:24.438Z,5.15
2019-03-03T18:15:44.977Z,5.67
2019-03-03T18:18:05.573Z,5.45
2019-03-03T18:20:26.072Z,6.10
2019-03-03T18:22:46.626Z,7.08
2019-03-03T18:25:08.461Z,6.53
2019-03-03T18:27:28.988Z,6.37
2019-03-03T18:29:49.501Z,6.72
2019-03-03T18:32:10.190Z,6.08
2019-03-03T18:34:30.815Z,6.50
2019-03-03T18:36:51.499Z,6.67
2019-03-03T18:39:12.388Z,7.50
2019-03-03T18:41:32.848Z,6.80
2019-03-03T18:43:53.468Z,6.70
2019-03-03T18:46:13.996Z,6.53
2019-03-03T18:48:35.496Z,6.50
2019-03-03T18:50:56.095Z,6.10
2019-03-03T18:53:16.700Z,6.28
2019-03-03T18:55:37.199Z,6.15
2019-03-03T18:57:58.818Z,6.83
2019-03-03T19:00:27.346Z,6.15
2019-03-03T19:02:47.916Z,7.47
2019-03-03T19:05:09.288Z,7.37
2019-03-03T19:07:29.941Z,6.28
2019-03-03T19:09:50.837Z,6.67
2019-03-03T19:12:11.752Z,6.33
2019-03-03T19:14:32.219Z,6.85
2019-03-03T19:16:52.895Z,8.48
2019-03-03T19:19:15.221Z,7.70
2019-03-03T19:21:35.247Z,7.20
2019-03-03T19:23:55.713Z,7.17
2019-03-03T19:26:16.306Z,6.42
2019-03-03T19:28:36.941Z,6.85
2019-03-03T19:31:11.474Z,7.62
2019-03-03T19:33:47.300Z,7.60
2019-03-03T19:36:07.823Z,8.28
2019-03-03T19:38:29.967Z,6.85
2019-03-03T19:40:50.709Z,6.58
2019-03-03T19:43:11.376Z,7.10
2019-03-03T19:45:37.222Z,7.28
2019-03-03T19:47:57.878Z,7.15
2019-03-03T19:50:19.427Z,6.87
2019-03-03T19:52:40.042Z,7.05
2019-03-03T19:55:00.880Z,7.08
2019-03-03T19:57:26.156Z,7.37
2019-03-03T19:59:47.309Z,7.72
2019-03-03T20:02:07.834Z,6.42
2019-03-03T20:04:28.511Z,7.25
2019-03-03T20:06:49.650Z,7.17
2019-03-03T20:09:11.201Z,7.58
2019-03-03T20:11:33.035Z,7.20
2019-03-03T20:13:55.155Z,6.90
2019-03-03T20:16:15.730Z,7.50
2019-03-03T20:18:36.343Z,6.80
2019-03-03T20:20:57.043Z,7.08
2019-03-03T20:23:18.158Z,7.70
2019-03-03T20:25:38.987Z,8.05
2019-03-03T20:28:02.492Z,8.35
2019-03-03T20:30:25.834Z,9.88
2019-03-03T20:32:46.811Z,8.48
2019-03-03T20:35:11.903Z,8.25
2019-03-03T20:37:32.615Z,9.45
2019-03-03T20:39:53.064Z,9.73
2019-03-03T20:42:13.715Z,7.87
2019-03-03T20:44:34.351Z,7.78
2019-03-03T20:46:54.900Z,7.95
2019-03-03T20:49:15.381Z,7.90
2019-03-03T20:51:36.716Z,9.18
2019-03-03T20:53:57.329Z,8.85
2019-03-03T20:56:18.014Z,8.33
2019-03-03T20:58:38.615Z,8.73
2019-03-03T21:00:59.218Z,9.68
2019-03-03T21:03:21.681Z,10.08
2019-03-03T21:05:42.132Z,6.92
2019-03-03T21:08:03.056Z,8.55
2019-03-03T21:10:26.802Z,9.25
2019-03-03T21:12:47.089Z,9.50
2019-03-03T21:15:10.650Z,9.23
2019-03-03T21:17:32.877Z,8.18
2019-03-03T21:19:53.804Z,6.58
2019-03-03T21:22:14.602Z,8.33
2019-03-03T21:24:35.143Z,8.30
2019-03-03T21:26:55.842Z,9.03
2019-03-03T21:29:16.361Z,7.85
2019-03-03T21:31:37.123Z,9.38
2019-03-03T21:33:57.767Z,9.13
2019-03-03T21:36:18.239Z,8.58
2019-03-03T21:38:39.091Z,8.10
2019-03-03T21:40:59.729Z,8.30
2019-03-03T21:43:21.068Z,9.03
2019-03-03T21:45:42.395Z,9.95
2019-03-03T21:48:02.978Z,9.60
2019-03-03T21:50:30.945Z,8.90
2019-03-03T21:52:51.639Z,8.03
2019-03-03T21:55:13.833Z,9.28
2019-03-03T21:57:34.601Z,9.35
2019-03-03T21:59:55.119Z,9.13
2019-03-03T22:02:17.334Z,9.10
2019-03-03T22:04:37.768Z,8.40
2019-03-03T22:06:58.502Z,8.90
2019-03-03T22:09:19.129Z,7.10
2019-03-03T22:11:41.570Z,7.35
2019-03-03T22:14:02.161Z,8.10
2019-03-03T22:16:22.725Z,8.60
2019-03-03T22:18:43.193Z,8.83
2019-03-03T22:21:03.782Z,8.88
2019-03-03T22:23:25.636Z,8.35
2019-03-03T22:25:46.569Z,8.03
2019-03-03T22:28:07.357Z,8.60
2019-03-03T22:30:28.880Z,9.05
2019-03-03T22:32:49.519Z,8.85
2019-03-03T22:35:10.109Z,8.80
2019-03-03T22:37:30.595Z,8.03
2019-03-03T22:39:51.028Z,7.33
2019-03-03T22:42:11.612Z,7.78
2019-03-03T22:44:33.711Z,8.30
2019-03-03T22:46:54.211Z,7.65
2019-03-03T22:49:14.784Z,7.92
2019-03-03T22:51:37.031Z,7.22
2019-03-03T22:53:57.575Z,7.17
2019-03-03T22:56:18.218Z,7.58
2019-03-03T22:58:38.771Z,7.55
2019-03-03T23:01:11.590Z,7.03
2019-03-03T23:03:44.116Z,7.00
2019-03-03T23:06:10.584Z,7.00
2019-03-03T23:08:39.700Z,8.33
2019-03-03T23:11:06.083Z,7.47
2019-03-03T23:13:44.705Z,6.80
2019-03-03T23:16:30.514Z,6.53
2019-03-03T23:19:24.547Z,6.87
2019-03-03T23:24:33.857Z,8.28
2019-03-03T23:26:56.000Z,7.83
2019-03-03T23:29:16.479Z,7.90
2019-03-03T23:31:37.039Z,9.90
2019-03-03T23:33:57.497Z,10.98
2019-03-03T23:36:18.008Z,10.45
2019-03-03T23:38:38.541Z,9.40
2019-03-03T23:40:59.276Z,9.20
2019-03-03T23:43:19.836Z,8.63
2019-03-03T23:45:41.048Z,8.50
2019-03-03T23:48:01.608Z,10.20
2019-03-03T23:50:22.076Z,8.75
2019-03-03T23:52:42.519Z,8.93
2019-03-03T23:55:03.105Z,8.78
2019-03-03T23:57:24.587Z,8.95
2019-03-03T23:59:45.210Z,8.73
